Time;durP1;ratioP1;P1;durP2;ratioP2;P2;SDS_P1;SDS_P2;PMS_P1;PMS_P2;Temp;Humidity;BMP_temperature;BMP_pressure;BME280_temperature;BME280_humidity;BME280_pressure;Samples;Min_cycle;Max_cycle;Signal;HPM_P1;HPM_P2
2021/12/24 00:00:04;;;;;;;;;;;9.20;99.90;;;;;;5052331;28;19935;-80
2021/12/24 00:02:31;;;;;;;;;;;9.20;99.90;;;;;;5048908;28;19924;-81
2021/12/24 00:04:57;;;;;;;;;;;9.20;99.90;;;;;;5049176;28;19925;-81
2021/12/24 00:07:24;;;;;;;;;;;9.20;99.90;;;;;;5066069;22;19925;-72
2021/12/24 00:09:52;;;;;;;;;;;9.20;99.90;;;;;;4991500;28;20391;-72
2021/12/24 00:12:20;;;;;;;;;;;9.10;99.90;;;;;;4988789;28;19933;-71
2021/12/24 00:14:52;;;;;;;;;;;9.20;99.90;;;;;;4989264;28;19932;-72
2021/12/24 00:17:24;;;;;;;;;;;9.10;99.90;;;;;;4988146;28;19925;-73
2021/12/24 00:20:04;;;;;;;;;;;9.10;99.90;;;;;;4988641;28;20346;-73
2021/12/24 00:36:38;;;;;;;;;;;9.10;99.90;;;;;;4976960;28;20287;-72
2021/12/24 00:39:05;;;;;;;;;;;9.10;99.90;;;;;;4983993;28;19929;-73
2021/12/24 00:41:33;;;;;;;;;;;9.10;99.90;;;;;;4988580;28;19926;-73
2021/12/24 00:43:59;;;;;;;;;;;9.10;99.90;;;;;;4986628;28;20002;-73
2021/12/24 00:46:26;;;;;;;;;;;9.10;99.90;;;;;;4989920;28;19925;-73
2021/12/24 00:48:53;;;;;;;;;;;9.00;99.90;;;;;;4990870;28;20324;-72
2021/12/24 00:51:29;;;;;;;;;;;9.00;99.90;;;;;;4986420;28;19972;-72
2021/12/24 00:56:41;;;;;;;;;;;8.90;99.90;;;;;;4988807;28;20402;-71
2021/12/24 00:59:07;;;;;;;;;;;8.90;99.90;;;;;;4989102;28;19926;-73
2021/12/24 01:01:34;;;;;;;;;;;8.90;99.90;;;;;;4987695;28;20265;-74
2021/12/24 01:04:00;;;;;;;;;;;8.80;99.90;;;;;;4989171;28;19932;-73
2021/12/24 01:06:27;;;;;;;;;;;8.90;99.90;;;;;;4990403;28;19926;-72
2021/12/24 01:08:54;;;;;;;;;;;8.80;99.90;;;;;;4990281;28;19930;-70
2021/12/24 01:11:21;;;;;;;;;;;8.80;99.90;;;;;;4990317;28;21546;-73
2021/12/24 01:13:49;;;;;;;;;;;8.80;99.90;;;;;;4986080;28;19940;-73
2021/12/24 01:16:23;;;;;;;;;;;8.80;99.90;;;;;;4993451;28;20114;-73
2021/12/24 01:18:58;;;;;;;;;;;8.90;99.90;;;;;;4990161;28;20068;-72
2021/12/24 01:21:39;;;;;;;;;;;8.90;99.90;;;;;;4985882;28;19937;-72
2021/12/24 01:24:10;;;;;;;;;;;8.90;99.90;;;;;;4990387;28;19980;-72
2021/12/24 01:26:43;;;;;;;;;;;8.90;99.90;;;;;;4997171;28;19930;-73
2021/12/24 01:40:21;;;;;;;;;;;9.00;99.90;;;;;;4993948;28;19929;-73
2021/12/24 01:42:48;;;;;;;;;;;9.10;99.90;;;;;;4990254;28;20063;-72
2021/12/24 01:45:24;;;;;;;;;;;9.10;99.90;;;;;;4993200;28;19925;-75
2021/12/24 01:47:52;;;;;;;;;;;9.10;99.90;;;;;;4991985;28;19932;-73
2021/12/24 01:50:19;;;;;;;;;;;9.10;99.90;;;;;;4994872;28;19957;-73
2021/12/24 01:52:48;;;;;;;;;;;9.10;99.90;;;;;;4995497;28;20415;-72
2021/12/24 01:55:15;;;;;;;;;;;9.10;99.90;;;;;;4993013;28;19952;-73
2021/12/24 01:57:42;;;;;;;;;;;9.10;99.90;;;;;;4989401;28;19925;-72
2021/12/24 02:00:10;;;;;;;;;;;9.20;99.90;;;;;;4986934;28;19926;-74
2021/12/24 02:02:38;;;;;;;;;;;9.20;99.90;;;;;;4993984;28;19926;-73
2021/12/24 02:05:05;;;;;;;;;;;9.10;99.90;;;;;;4993285;28;20303;-73
2021/12/24 02:07:32;;;;;;;;;;;9.20;99.90;;;;;;4992730;28;19925;-71
2021/12/24 02:09:58;;;;;;;;;;;9.20;99.90;;;;;;4992420;28;19926;-72
2021/12/24 02:12:26;;;;;;;;;;;9.30;99.90;;;;;;4989788;28;20412;-73
2021/12/24 02:14:56;;;;;;;;;;;9.20;99.90;;;;;;4993323;28;19926;-72
2021/12/24 02:17:45;;;;;;;;;;;9.20;99.90;;;;;;4996772;28;19925;-73
2021/12/24 02:28:36;;;;;;;;;;;9.20;99.90;;;;;;4992722;28;19975;-73
2021/12/24 02:31:03;;;;;;;;;;;9.20;99.90;;;;;;4998279;28;20058;-72
2021/12/24 02:33:30;;;;;;;;;;;9.20;99.90;;;;;;4988632;28;19929;-72
2021/12/24 02:35:58;;;;;;;;;;;9.20;99.90;;;;;;4996608;28;20379;-71
2021/12/24 02:38:24;;;;;;;;;;;9.20;99.90;;;;;;4992516;28;19930;-72
2021/12/24 02:40:51;;;;;;;;;;;9.20;99.90;;;;;;4992646;28;20595;-72
2021/12/24 02:43:21;;;;;;;;;;;9.20;99.90;;;;;;4991380;28;19952;-73
2021/12/24 02:45:49;;;;;;;;;;;9.20;99.90;;;;;;4990489;28;20304;-72
2021/12/24 02:53:58;;;;;;;;;;;9.20;99.90;;;;;;4919539;28;19927;-72
2021/12/24 02:56:27;;;;;;;;;;;9.20;99.90;;;;;;4988520;28;19934;-72
2021/12/24 02:58:54;;;;;;;;;;;9.20;99.90;;;;;;4991570;28;19941;-73
2021/12/24 03:01:25;;;;;;;;;;;9.20;99.90;;;;;;4994189;28;19982;-73
2021/12/24 03:03:52;;;;;;;;;;;9.20;99.90;;;;;;4988283;28;19932;-73
2021/12/24 03:06:21;;;;;;;;;;;9.20;99.90;;;;;;4995842;28;19930;-72
2021/12/24 03:08:47;;;;;;;;;;;9.20;99.90;;;;;;4985749;28;19926;-71
2021/12/24 03:11:14;;;;;;;;;;;9.20;99.90;;;;;;4988154;28;19929;-72
2021/12/24 03:13:41;;;;;;;;;;;9.20;99.90;;;;;;4989236;28;19933;-72
2021/12/24 03:16:08;;;;;;;;;;;9.20;99.90;;;;;;4993192;28;21585;-73
2021/12/24 03:18:37;;;;;;;;;;;9.10;99.90;;;;;;4991789;28;20020;-72
2021/12/24 03:21:09;;;;;;;;;;;9.10;99.90;;;;;;4993549;28;19926;-72
2021/12/24 03:23:40;;;;;;;;;;;9.10;99.90;;;;;;4986704;28;20344;-72
2021/12/24 03:26:09;;;;;;;;;;;9.10;99.90;;;;;;4991789;28;20537;-72
2021/12/24 03:28:36;;;;;;;;;;;9.10;99.90;;;;;;4992648;28;19926;-71
2021/12/24 03:31:03;;;;;;;;;;;9.10;99.90;;;;;;4990550;28;19926;-71
2021/12/24 03:33:30;;;;;;;;;;;9.10;99.90;;;;;;4989683;28;19933;-71
2021/12/24 03:35:57;;;;;;;;;;;9.00;99.90;;;;;;4985978;28;20303;-72
2021/12/24 03:38:23;;;;;;;;;;;9.10;99.90;;;;;;4987399;28;20422;-72
2021/12/24 03:40:51;;;;;;;;;;;9.00;99.90;;;;;;4990174;28;19949;-72
2021/12/24 03:43:18;;;;;;;;;;;9.00;99.90;;;;;;4989457;28;19932;-72
2021/12/24 03:45:56;;;;;;;;;;;9.00;99.90;;;;;;4993395;28;20275;-71
2021/12/24 03:48:27;;;;;;;;;;;9.00;99.90;;;;;;4984632;28;19948;-71
2021/12/24 03:51:00;;;;;;;;;;;8.90;99.90;;;;;;4987375;28;19930;-72
2021/12/24 03:56:12;;;;;;;;;;;9.00;99.90;;;;;;4986135;28;19944;-73
2021/12/24 03:58:39;;;;;;;;;;;8.90;99.90;;;;;;4985058;28;19927;-71
2021/12/24 04:01:05;;;;;;;;;;;8.90;99.90;;;;;;4985934;28;20303;-72
2021/12/24 04:03:32;;;;;;;;;;;8.90;99.90;;;;;;4988498;28;19934;-72
2021/12/24 04:05:59;;;;;;;;;;;8.90;99.90;;;;;;4987745;28;19933;-71
2021/12/24 04:08:25;;;;;;;;;;;8.90;99.90;;;;;;4995629;28;19925;-72
2021/12/24 04:10:52;;;;;;;;;;;8.90;99.90;;;;;;4987517;28;19932;-72
2021/12/24 04:13:20;;;;;;;;;;;8.90;99.90;;;;;;4992285;28;20384;-72
2021/12/24 04:15:47;;;;;;;;;;;9.00;99.90;;;;;;4992126;28;19933;-72
2021/12/24 04:18:18;;;;;;;;;;;9.10;99.90;;;;;;4991471;28;19925;-72
2021/12/24 04:26:13;;;;;;;;;;;9.10;99.90;;;;;;4992910;28;20056;-72
2021/12/24 04:28:41;;;;;;;;;;;9.10;99.90;;;;;;4994258;28;19926;-71
2021/12/24 04:31:08;;;;;;;;;;;9.10;99.90;;;;;;4986133;28;19930;-72
2021/12/24 04:33:37;;;;;;;;;;;9.20;99.90;;;;;;4990365;28;19929;-72
2021/12/24 04:36:18;;;;;;;;;;;9.20;99.90;;;;;;4990169;28;20023;-71
2021/12/24 04:39:03;;;;;;;;;;;9.20;99.90;;;;;;4989658;28;19929;-72
2021/12/24 05:01:21;;;;;;;;;;;9.40;99.90;;;;;;5103310;27;19924;-73
2021/12/24 05:03:48;;;;;;;;;;;9.40;99.90;;;;;;5148462;27;19923;-73
2021/12/24 05:06:27;;;;;;;;;;;9.40;99.90;;;;;;5147981;27;19923;-72
2021/12/24 05:08:56;;;;;;;;;;;9.40;99.90;;;;;;5147929;27;19935;-73
2021/12/24 05:11:24;;;;;;;;;;;9.40;99.90;;;;;;5143377;27;19959;-73
2021/12/24 05:13:52;;;;;;;;;;;9.40;99.90;;;;;;5149156;27;19924;-73
2021/12/24 05:16:23;;;;;;;;;;;9.40;99.90;;;;;;5150266;27;19923;-73
2021/12/24 05:21:32;;;;;;;;;;;9.50;99.90;;;;;;5143954;27;20406;-73
2021/12/24 05:21:52;;;;;;;;;;;9.40;99.90;;;;;;5144872;27;20012;-73
2021/12/24 05:24:20;;;;;;;;;;;9.50;99.90;;;;;;5153546;27;19926;-72
2021/12/24 05:26:49;;;;;;;;;;;9.50;99.90;;;;;;5139386;27;19928;-72
2021/12/24 05:29:17;;;;;;;;;;;9.40;99.90;;;;;;5144654;27;19946;-73
2021/12/24 05:31:44;;;;;;;;;;;9.50;99.90;;;;;;5147216;27;19931;-73
2021/12/24 05:34:11;;;;;;;;;;;9.50;99.90;;;;;;5143030;27;19928;-73
2021/12/24 05:36:38;;;;;;;;;;;9.50;99.90;;;;;;5143525;27;19942;-72
2021/12/24 05:39:08;;;;;;;;;;;9.50;99.90;;;;;;5145466;27;19934;-72
2021/12/24 05:41:35;;;;;;;;;;;9.60;99.90;;;;;;5145452;27;19931;-72
2021/12/24 05:44:04;;;;;;;;;;;9.60;99.90;;;;;;5143643;27;19942;-72
2021/12/24 05:46:30;;;;;;;;;;;9.60;99.90;;;;;;5144029;27;19924;-71
2021/12/24 05:48:57;;;;;;;;;;;9.60;99.90;;;;;;5141919;27;19923;-72
2021/12/24 05:51:24;;;;;;;;;;;9.50;99.90;;;;;;5146959;27;19928;-72
2021/12/24 05:53:50;;;;;;;;;;;9.60;99.90;;;;;;5139627;27;19946;-73
2021/12/24 05:56:17;;;;;;;;;;;9.60;99.90;;;;;;5148754;27;19924;-73
2021/12/24 05:58:43;;;;;;;;;;;9.60;99.90;;;;;;5147583;27;19923;-72
2021/12/24 06:01:11;;;;;;;;;;;9.60;99.90;;;;;;5143200;27;20383;-72
2021/12/24 06:03:38;;;;;;;;;;;9.60;99.90;;;;;;5144561;27;19923;-73
2021/12/24 06:06:05;;;;;;;;;;;9.50;99.90;;;;;;5132532;27;19935;-72
2021/12/24 06:08:31;;;;;;;;;;;9.60;99.90;;;;;;5135501;27;19923;-73
2021/12/24 06:10:58;;;;;;;;;;;9.60;99.90;;;;;;5134434;27;19930;-73
2021/12/24 06:13:25;;;;;;;;;;;9.60;99.90;;;;;;5130831;27;19927;-73
2021/12/24 06:15:52;;;;;;;;;;;9.60;99.90;;;;;;5134228;27;20096;-72
2021/12/24 06:18:24;;;;;;;;;;;9.60;99.90;;;;;;5132732;27;19934;-72
2021/12/24 06:20:51;;;;;;;;;;;9.50;99.90;;;;;;5131838;27;20405;-73
2021/12/24 06:23:19;;;;;;;;;;;9.60;99.90;;;;;;5134377;27;19923;-71
2021/12/24 06:25:46;;;;;;;;;;;9.50;99.90;;;;;;5133115;27;19975;-72
2021/12/24 06:28:12;;;;;;;;;;;9.50;99.90;;;;;;5137443;27;19930;-71
2021/12/24 06:30:39;;;;;;;;;;;9.50;99.90;;;;;;5130875;27;19923;-72
2021/12/24 06:33:06;;;;;;;;;;;9.50;99.90;;;;;;5132051;27;19923;-73
2021/12/24 06:35:34;;;;;;;;;;;9.50;99.90;;;;;;5136070;27;19923;-72
2021/12/24 06:38:01;;;;;;;;;;;9.50;99.90;;;;;;5134924;27;19930;-72
2021/12/24 06:40:28;;;;;;;;;;;9.50;99.90;;;;;;5132875;27;19923;-72
2021/12/24 06:42:54;;;;;;;;;;;9.50;99.90;;;;;;5128041;27;19928;-71
2021/12/24 06:45:24;;;;;;;;;;;9.50;99.90;;;;;;5123550;27;20299;-72
2021/12/24 06:47:50;;;;;;;;;;;9.50;99.90;;;;;;5124124;27;20309;-72
2021/12/24 06:50:17;;;;;;;;;;;9.50;99.90;;;;;;5135455;27;19923;-73
2021/12/24 06:52:45;;;;;;;;;;;9.50;99.90;;;;;;5131946;27;19923;-72
2021/12/24 06:55:12;;;;;;;;;;;9.50;99.90;;;;;;5134022;27;19923;-72
2021/12/24 06:57:40;;;;;;;;;;;9.50;99.90;;;;;;5127198;27;19927;-71
2021/12/24 07:00:07;;;;;;;;;;;9.50;99.90;;;;;;5134852;27;20102;-72
2021/12/24 07:02:33;;;;;;;;;;;9.50;99.90;;;;;;5129482;27;19924;-72
2021/12/24 07:05:00;;;;;;;;;;;9.40;99.90;;;;;;5131395;27;19935;-72
2021/12/24 07:07:31;;;;;;;;;;;9.50;99.90;;;;;;5132127;27;19924;-71
2021/12/24 07:09:59;;;;;;;;;;;9.50;99.90;;;;;;5138034;27;19923;-72
2021/12/24 07:12:26;;;;;;;;;;;9.50;99.90;;;;;;5134141;27;19934;-71
2021/12/24 07:14:52;;;;;;;;;;;9.50;99.90;;;;;;5133539;27;19936;-71
2021/12/24 07:17:19;;;;;;;;;;;9.50;99.90;;;;;;5122819;27;19924;-71
2021/12/24 07:19:46;;;;;;;;;;;9.40;99.90;;;;;;5129194;27;19931;-72
2021/12/24 07:22:14;;;;;;;;;;;9.40;99.90;;;;;;5133640;27;19930;-72
2021/12/24 07:24:40;;;;;;;;;;;9.50;99.90;;;;;;5128567;27;19928;-73
2021/12/24 07:27:08;;;;;;;;;;;9.40;99.90;;;;;;5134314;27;19927;-72
2021/12/24 07:29:36;;;;;;;;;;;9.40;99.90;;;;;;5130907;27;19934;-72
2021/12/24 07:32:03;;;;;;;;;;;9.40;99.90;;;;;;5133147;27;19929;-71
2021/12/24 07:34:29;;;;;;;;;;;9.40;99.90;;;;;;5127268;27;20373;-72
2021/12/24 07:36:56;;;;;;;;;;;9.40;99.90;;;;;;5130703;27;19930;-71
2021/12/24 07:39:23;;;;;;;;;;;9.50;99.90;;;;;;5124316;27;19947;-71
2021/12/24 07:41:49;;;;;;;;;;;9.50;99.90;;;;;;5125048;27;19954;-71
2021/12/24 07:44:18;;;;;;;;;;;9.50;99.90;;;;;;5131192;27;19923;-72
2021/12/24 07:46:48;;;;;;;;;;;9.50;99.90;;;;;;5127438;27;19987;-71
2021/12/24 07:49:29;;;;;;;;;;;9.50;99.90;;;;;;5128289;27;20014;-72
2021/12/24 07:52:02;;;;;;;;;;;9.50;99.90;;;;;;5119979;27;19923;-72
2021/12/24 07:54:29;;;;;;;;;;;9.50;99.90;;;;;;5132602;27;20399;-72
2021/12/24 07:56:56;;;;;;;;;;;9.60;99.90;;;;;;5134181;27;19923;-72
2021/12/24 07:59:26;;;;;;;;;;;9.60;99.90;;;;;;5129773;27;19927;-71
2021/12/24 08:01:56;;;;;;;;;;;9.60;99.90;;;;;;5125364;27;19923;-70
2021/12/24 08:04:23;;;;;;;;;;;9.60;99.90;;;;;;5120865;27;20361;-71
2021/12/24 08:06:50;;;;;;;;;;;9.70;99.90;;;;;;5125904;27;19927;-70
2021/12/24 08:09:17;;;;;;;;;;;9.60;99.90;;;;;;5133337;27;20298;-70
2021/12/24 08:11:43;;;;;;;;;;;9.60;99.90;;;;;;5130715;27;19934;-71
2021/12/24 08:14:10;;;;;;;;;;;9.70;99.90;;;;;;5136492;27;19927;-71
2021/12/24 08:16:38;;;;;;;;;;;9.70;99.90;;;;;;5128968;27;19923;-70
2021/12/24 08:19:05;;;;;;;;;;;9.70;99.90;;;;;;5131458;27;19931;-74
2021/12/24 08:21:31;;;;;;;;;;;9.70;99.90;;;;;;5117797;27;19931;-75
2021/12/24 08:23:58;;;;;;;;;;;9.70;99.90;;;;;;5132162;27;19931;-76
2021/12/24 08:26:25;;;;;;;;;;;9.70;99.90;;;;;;5130811;27;19930;-75
2021/12/24 08:28:52;;;;;;;;;;;9.70;99.90;;;;;;5121821;27;19981;-75
2021/12/24 08:31:18;;;;;;;;;;;9.70;99.90;;;;;;5125414;27;19950;-74
2021/12/24 08:33:46;;;;;;;;;;;9.70;99.90;;;;;;5128947;27;19927;-77
2021/12/24 08:36:13;;;;;;;;;;;9.70;99.90;;;;;;5123898;27;19930;-75
2021/12/24 08:38:40;;;;;;;;;;;9.70;99.90;;;;;;5129910;27;19943;-75
2021/12/24 08:41:07;;;;;;;;;;;9.70;99.90;;;;;;5130097;27;19949;-69
2021/12/24 08:43:34;;;;;;;;;;;9.70;99.90;;;;;;5116911;27;20000;-73
2021/12/24 08:46:01;;;;;;;;;;;9.80;99.90;;;;;;5118467;27;20356;-74
2021/12/24 08:48:28;;;;;;;;;;;9.80;99.90;;;;;;5117024;27;19928;-74
2021/12/24 08:50:56;;;;;;;;;;;9.80;99.90;;;;;;5127664;27;19923;-73
2021/12/24 08:53:23;;;;;;;;;;;9.80;99.90;;;;;;5127011;27;19923;-74
2021/12/24 08:55:50;;;;;;;;;;;9.80;99.90;;;;;;5130823;27;19931;-74
2021/12/24 08:58:16;;;;;;;;;;;9.80;99.90;;;;;;5132416;27;19946;-73
2021/12/24 09:00:43;;;;;;;;;;;9.80;99.90;;;;;;5128134;27;19949;-74
2021/12/24 09:03:10;;;;;;;;;;;9.90;99.90;;;;;;5130972;27;20427;-74
2021/12/24 09:05:36;;;;;;;;;;;9.90;99.90;;;;;;5133676;27;19923;-74
2021/12/24 09:08:05;;;;;;;;;;;9.90;99.90;;;;;;5136718;27;19928;-74
2021/12/24 09:10:31;;;;;;;;;;;9.90;99.90;;;;;;5134598;27;19923;-74
2021/12/24 09:12:58;;;;;;;;;;;10.00;99.90;;;;;;5119279;27;19927;-73
2021/12/24 09:15:29;;;;;;;;;;;9.90;99.90;;;;;;5128958;27;19922;-74
2021/12/24 09:17:56;;;;;;;;;;;10.00;99.90;;;;;;5134287;27;20390;-72
2021/12/24 09:20:28;;;;;;;;;;;9.90;99.90;;;;;;5133919;27;20006;-75
2021/12/24 09:22:55;;;;;;;;;;;10.00;99.90;;;;;;5132235;27;20018;-74
2021/12/24 09:25:24;;;;;;;;;;;10.00;99.90;;;;;;5134503;27;20026;-76
2021/12/24 09:27:50;;;;;;;;;;;10.00;99.90;;;;;;5129236;27;19928;-74
2021/12/24 09:30:17;;;;;;;;;;;10.00;99.90;;;;;;5130384;27;19923;-74
2021/12/24 09:32:44;;;;;;;;;;;10.00;99.90;;;;;;5129358;27;19935;-74
2021/12/24 09:35:11;;;;;;;;;;;10.00;99.90;;;;;;5126047;27;20277;-73
2021/12/24 09:37:37;;;;;;;;;;;10.10;99.90;;;;;;5126905;27;19923;-74
2021/12/24 09:40:05;;;;;;;;;;;10.10;99.90;;;;;;5128688;27;20000;-74
2021/12/24 09:42:34;;;;;;;;;;;10.00;99.90;;;;;;5122432;27;20333;-73
2021/12/24 09:45:01;;;;;;;;;;;10.00;99.90;;;;;;5127731;27;19941;-73
2021/12/24 09:47:27;;;;;;;;;;;10.00;99.90;;;;;;5130580;27;19935;-74
2021/12/24 09:49:54;;;;;;;;;;;9.90;99.90;;;;;;5130745;27;19940;-72
2021/12/24 09:52:21;;;;;;;;;;;10.00;99.90;;;;;;5130241;27;19923;-74
2021/12/24 09:54:48;;;;;;;;;;;9.90;99.90;;;;;;5130752;27;19924;-73
2021/12/24 09:57:15;;;;;;;;;;;9.90;99.90;;;;;;5139288;27;20452;-74
2021/12/24 09:59:43;;;;;;;;;;;9.90;99.90;;;;;;5128053;27;20014;-74
2021/12/24 10:02:15;;;;;;;;;;;9.90;99.90;;;;;;5128153;27;19935;-74
2021/12/24 10:04:43;;;;;;;;;;;9.90;99.90;;;;;;5126604;27;19966;-74
2021/12/24 10:07:11;;;;;;;;;;;9.90;99.90;;;;;;5131912;27;19927;-74
2021/12/24 10:09:38;;;;;;;;;;;10.00;99.90;;;;;;5139251;27;19927;-73
2021/12/24 10:12:06;;;;;;;;;;;10.10;99.90;;;;;;5133374;27;19931;-73
2021/12/24 10:14:33;;;;;;;;;;;10.20;99.90;;;;;;5128969;27;19946;-74
2021/12/24 10:17:02;;;;;;;;;;;10.20;99.90;;;;;;5132802;27;20285;-73
2021/12/24 10:19:28;;;;;;;;;;;10.40;99.90;;;;;;5130081;27;19930;-73
2021/12/24 10:22:00;;;;;;;;;;;10.50;99.90;;;;;;5126433;27;19924;-73
2021/12/24 10:24:27;;;;;;;;;;;10.60;99.90;;;;;;5127072;27;19923;-74
2021/12/24 10:26:55;;;;;;;;;;;10.80;99.90;;;;;;5127377;27;20006;-75
2021/12/24 10:29:22;;;;;;;;;;;10.90;99.90;;;;;;5122895;27;19930;-75
2021/12/24 10:31:50;;;;;;;;;;;10.90;99.90;;;;;;5128354;27;19931;-75
2021/12/24 10:34:19;;;;;;;;;;;10.90;99.90;;;;;;5129206;27;20533;-75
2021/12/24 10:36:55;;;;;;;;;;;11.00;99.90;;;;;;5125205;27;19942;-74
2021/12/24 10:39:23;;;;;;;;;;;11.10;99.90;;;;;;5125336;27;19954;-74
2021/12/24 10:41:51;;;;;;;;;;;11.10;99.90;;;;;;5135793;27;19931;-73
2021/12/24 10:44:17;;;;;;;;;;;11.10;99.90;;;;;;5123178;27;19932;-74
2021/12/24 10:46:57;;;;;;;;;;;11.00;99.90;;;;;;5127535;27;19932;-74
2021/12/24 10:49:37;;;;;;;;;;;11.00;99.90;;;;;;5115584;27;19931;-72
2021/12/24 10:52:13;;;;;;;;;;;10.90;99.90;;;;;;5094984;28;19927;-74
2021/12/24 10:54:40;;;;;;;;;;;;;;;;;;5073146;28;20446;-75
2021/12/24 10:57:10;;;;;;;;;;;;;;;;;;5074470;28;19924;-74
2021/12/24 10:59:40;;;;;;;;;;;11.60;99.90;;;;;;5076794;28;20411;-74
2021/12/24 11:02:08;;;;;;;;;;;11.70;99.90;;;;;;5066161;28;20266;-74
2021/12/24 11:04:36;;;;;;;;;;;11.60;99.90;;;;;;5055231;22;19929;-72
2021/12/24 11:07:03;;;;;;;;;;;11.50;99.90;;;;;;5050470;28;19936;-75
2021/12/24 11:09:30;;;;;;;;;;;11.40;99.90;;;;;;5042147;28;19925;-74
2021/12/24 11:11:58;;;;;;;;;;;11.20;99.90;;;;;;5051103;28;19929;-73
2021/12/24 11:14:25;;;;;;;;;;;11.10;99.90;;;;;;5043574;28;19925;-74
2021/12/24 11:16:52;;;;;;;;;;;11.00;99.90;;;;;;5047842;28;19931;-74
2021/12/24 11:19:27;;;;;;;;;;;11.00;99.90;;;;;;5058545;22;20009;-73
2021/12/24 11:22:04;;;;;;;;;;;10.90;99.90;;;;;;5049362;28;19932;-73
2021/12/24 11:24:31;;;;;;;;;;;11.00;99.90;;;;;;5049168;28;19924;-74
2021/12/24 11:26:57;;;;;;;;;;;11.00;99.90;;;;;;5052357;28;20367;-74
2021/12/24 11:29:24;;;;;;;;;;;11.00;99.90;;;;;;5046073;28;19968;-73
2021/12/24 11:31:51;;;;;;;;;;;11.00;99.90;;;;;;5042936;28;19926;-73
2021/12/24 11:34:17;;;;;;;;;;;11.00;99.90;;;;;;5043661;28;19928;-74
2021/12/24 11:36:44;;;;;;;;;;;11.10;99.90;;;;;;5046128;28;19933;-73
2021/12/24 11:39:14;;;;;;;;;;;11.10;99.90;;;;;;5041391;28;19925;-73
2021/12/24 11:41:41;;;;;;;;;;;11.20;99.90;;;;;;5042346;28;19931;-73
2021/12/24 11:44:08;;;;;;;;;;;11.10;99.90;;;;;;5041637;28;19928;-74
2021/12/24 11:46:37;;;;;;;;;;;11.10;99.90;;;;;;5046541;28;19928;-74
2021/12/24 11:49:03;;;;;;;;;;;11.10;99.90;;;;;;5046975;28;20016;-73
2021/12/24 11:51:33;;;;;;;;;;;11.10;99.90;;;;;;5044729;28;20244;-73
2021/12/24 11:54:01;;;;;;;;;;;11.20;99.90;;;;;;5043442;28;20405;-75
2021/12/24 11:56:29;;;;;;;;;;;11.20;99.90;;;;;;5042720;28;19940;-71
2021/12/24 11:58:58;;;;;;;;;;;11.20;99.90;;;;;;5040098;28;19931;-71
2021/12/24 12:01:27;;;;;;;;;;;11.20;99.90;;;;;;5045949;28;19924;-71
2021/12/24 12:03:54;;;;;;;;;;;11.20;99.90;;;;;;5039047;28;19933;-72
2021/12/24 12:06:34;;;;;;;;;;;11.20;99.90;;;;;;5039499;28;19925;-71
2021/12/24 12:09:03;;;;;;;;;;;11.20;99.90;;;;;;5047727;28;20024;-71
2021/12/24 12:11:32;;;;;;;;;;;11.20;99.90;;;;;;5046727;28;19929;-72
2021/12/24 12:14:01;;;;;;;;;;;11.20;99.90;;;;;;5038969;28;19925;-70
2021/12/24 12:16:29;;;;;;;;;;;11.20;99.90;;;;;;5048996;28;19932;-72
2021/12/24 12:19:11;;;;;;;;;;;11.20;99.90;;;;;;5038635;28;19944;-71
2021/12/24 12:21:41;;;;;;;;;;;11.10;99.90;;;;;;5043611;28;20339;-71
2021/12/24 12:27:02;;;;;;;;;;;11.20;99.90;;;;;;5042174;28;19929;-71
2021/12/24 12:29:32;;;;;;;;;;;11.20;99.90;;;;;;5042703;28;20004;-72
2021/12/24 12:32:03;;;;;;;;;;;11.30;99.90;;;;;;5044016;28;19925;-72
2021/12/24 12:34:49;;;;;;;;;;;11.50;99.90;;;;;;5039294;28;20490;-72
2021/12/24 12:37:16;;;;;;;;;;;;;;;;;;5044778;28;20023;-72
2021/12/24 12:39:43;;;;;;;;;;;;;;;;;;5043056;28;19925;-72
2021/12/24 12:42:13;;;;;;;;;;;;;;;;;;5044205;28;19925;-72
2021/12/24 12:44:40;;;;;;;;;;;;;;;;;;5039636;28;20031;-72
2021/12/24 12:47:07;;;;;;;;;;;;;;;;;;5038595;28;19932;-72
2021/12/24 12:49:35;;;;;;;;;;;;;;;;;;5037472;28;19933;-70
2021/12/24 12:52:02;;;;;;;;;;;;;;;;;;5040515;28;19924;-71
2021/12/24 12:54:29;;;;;;;;;;;;;;;;;;5048219;28;19925;-71
2021/12/24 12:56:56;;;;;;;;;;;;;;;;;;5044388;28;19925;-71
2021/12/24 12:59:23;;;;;;;;;;;;;;;;;;5038606;28;19931;-72
2021/12/24 13:01:50;;;;;;;;;;;;;;;;;;5046494;28;19947;-72
2021/12/24 13:04:17;;;;;;;;;;;;;;;;;;5034546;28;20140;-73
2021/12/24 13:06:45;;;;;;;;;;;;;;;;;;5042485;28;20284;-74
2021/12/24 13:09:12;;;;;;;;;;;;;;;;;;5041260;28;19988;-82
2021/12/24 13:11:39;;;;;;;;;;;;;;;;;;5046395;28;19992;-78
2021/12/24 13:14:06;;;;;;;;;;;;;;;;;;5041618;28;19936;-76
2021/12/24 13:16:34;;;;;;;;;;;;;;;;;;5041705;28;20012;-75
2021/12/24 13:19:22;;;;;;;;;;;;;;;;;;5047563;28;19925;-77
2021/12/24 13:24:34;;;;;;;;;;;;;;;;;;5046570;28;19920;-73
2021/12/24 13:27:00;;;;;;;;;;;;;;;;;;5040702;28;19925;-72
2021/12/24 13:29:27;;;;;;;;;;;;;;;;;;5042858;28;19951;-79
2021/12/24 13:31:54;;;;;;;;;;;;;;;;;;5044005;28;19924;-80
2021/12/24 13:34:21;;;;;;;;;;;;;;;;;;5043734;28;20009;-74
2021/12/24 13:36:48;;;;;;;;;;;;;;;;;;5046787;28;19929;-74
2021/12/24 13:39:15;;;;;;;;;;;;;;;;;;5043157;28;19948;-76
2021/12/24 13:41:42;;;;;;;;;;;;;;;;;;5043071;28;19925;-73
2021/12/24 13:44:09;;;;;;;;;;;;;;;;;;5041460;28;19933;-73
2021/12/24 13:46:38;;;;;;;;;;;;;;;;;;5042564;28;19931;-75
2021/12/24 13:49:32;;;;;;;;;;;;;;;;;;5044516;28;20345;-75
2021/12/24 13:54:44;;;;;;;;;;;;;;;;;;5049236;28;19920;-78
2021/12/24 13:57:11;;;;;;;;;;;;;;;;;;5045208;28;19928;-74
2021/12/24 13:59:38;;;;;;;;;;;;;;;;;;5045777;28;19935;-73
2021/12/24 14:02:05;;;;;;;;;;;;;;;;;;5038543;28;20298;-76
2021/12/24 14:04:33;;;;;;;;;;;;;;;;;;5044082;28;19925;-77
2021/12/24 14:07:00;;;;;;;;;;;;;;;;;;5048610;28;19925;-79
2021/12/24 14:09:29;;;;;;;;;;;;;;;;;;5044873;28;19925;-77
2021/12/24 14:11:56;;;;;;;;;;;;;;;;;;5046717;28;19928;-77
2021/12/24 14:14:26;;;;;;;;;;;;;;;;;;5044553;28;19928;-77
2021/12/24 14:17:04;;;;;;;;;;;;;;;;;;5045813;28;19925;-74
2021/12/24 14:19:34;;;;;;;;;;;;;;;;;;5045959;28;19932;-73
2021/12/24 14:22:01;;;;;;;;;;;;;;;;;;5041752;28;19924;-81
2021/12/24 14:24:28;;;;;;;;;;;;;;;;;;5046013;28;19925;-74
2021/12/24 14:26:55;;;;;;;;;;;;;;;;;;5047929;28;19933;-74
2021/12/24 14:29:22;;;;;;;;;;;;;;;;;;5044780;28;19968;-75
2021/12/24 14:31:49;;;;;;;;;;;;;;;;;;5048858;28;19956;-74
2021/12/24 14:34:16;;;;;;;;;;;;;;;;;;5044088;28;19972;-79
2021/12/24 14:36:43;;;;;;;;;;;;;;;;;;5040923;28;19931;-82
2021/12/24 14:39:11;;;;;;;;;;;;;;;;;;5043323;28;19925;-79
2021/12/24 14:41:38;;;;;;;;;;;;;;;;;;5040397;28;20275;-81
2021/12/24 14:44:05;;;;;;;;;;;;;;;;;;5043487;28;19925;-80
2021/12/24 14:46:32;;;;;;;;;;;;;;;;;;5048633;28;20394;-79
2021/12/24 14:48:59;;;;;;;;;;;;;;;;;;5052069;28;19935;-80
2021/12/24 14:51:26;;;;;;;;;;;;;;;;;;5048972;28;19931;-79
2021/12/24 14:53:54;;;;;;;;;;;;;;;;;;5046884;28;19925;-79
2021/12/24 14:56:21;;;;;;;;;;;;;;;;;;5050733;28;19970;-79
2021/12/24 14:58:47;;;;;;;;;;;;;;;;;;5051280;28;19925;-81
2021/12/24 15:01:14;;;;;;;;;;;;;;;;;;5047147;28;19925;-80
2021/12/24 15:03:41;;;;;;;;;;;;;;;;;;5050825;28;19924;-78
2021/12/24 15:06:08;;;;;;;;;;;;;;;;;;5051572;28;19939;-79
2021/12/24 15:08:35;;;;;;;;;;;;;;;;;;5051017;28;19925;-80
2021/12/24 15:11:03;;;;;;;;;;;;;;;;;;5050614;28;20302;-79
2021/12/24 15:13:30;;;;;;;;;;;;;;;;;;5051520;28;20341;-77
2021/12/24 15:15:57;;;;;;;;;;;;;;;;;;5048926;28;19979;-79
2021/12/24 15:18:24;;;;;;;;;;;;;;;;;;5051619;28;19931;-79
2021/12/24 15:20:51;;;;;;;;;;;;;;;;;;5051130;28;19979;-77
2021/12/24 15:23:18;;;;;;;;;;;;;;;;;;5051204;28;20466;-77
2021/12/24 15:25:45;;;;;;;;;;;;;;;;;;5051270;28;20304;-78
2021/12/24 15:28:20;;;;;;;;;;;;;;;;;;5048512;28;19932;-78
2021/12/24 15:30:47;;;;;;;;;;;;;;;;;;5051125;28;19925;-79
2021/12/24 15:33:14;;;;;;;;;;;;;;;;;;5051791;28;19925;-78
2021/12/24 15:35:41;;;;;;;;;;;;;;;;;;5048841;28;19932;-79
2021/12/24 15:38:08;;;;;;;;;;;;;;;;;;5050157;28;19925;-79
2021/12/24 15:40:35;;;;;;;;;;;;;;;;;;5045529;28;20016;-77
2021/12/24 15:43:03;;;;;;;;;;;;;;;;;;5047260;28;19925;-77
2021/12/24 15:45:30;;;;;;;;;;;;;;;;;;5050615;28;19925;-77
2021/12/24 15:47:56;;;;;;;;;;;;;;;;;;5045571;28;19932;-77
2021/12/24 15:50:23;;;;;;;;;;;;;;;;;;5050376;28;19925;-77
2021/12/24 15:52:50;;;;;;;;;;;;;;;;;;5051333;28;20008;-76
2021/12/24 15:55:17;;;;;;;;;;;;;;;;;;5051204;28;19929;-78
2021/12/24 15:57:44;;;;;;;;;;;;;;;;;;5049611;28;20012;-80
2021/12/24 16:00:11;;;;;;;;;;;;;;;;;;5050383;28;19924;-78
2021/12/24 16:02:38;;;;;;;;;;;;;;;;;;5048458;28;20390;-78
2021/12/24 16:05:05;;;;;;;;;;;;;;;;;;5048064;28;19931;-78
2021/12/24 16:07:32;;;;;;;;;;;;;;;;;;5050782;28;19983;-78
2021/12/24 16:09:59;;;;;;;;;;;;;;;;;;5049394;28;19929;-78
2021/12/24 16:12:27;;;;;;;;;;;;;;;;;;5050628;28;19925;-78
2021/12/24 16:14:56;;;;;;;;;;;;;;;;;;5048755;28;19928;-79
2021/12/24 16:17:23;;;;;;;;;;;;;;;;;;5050454;28;19972;-79
2021/12/24 16:19:50;;;;;;;;;;;;;;;;;;5049473;28;19939;-78
2021/12/24 16:22:18;;;;;;;;;;;;;;;;;;5049405;28;20401;-78